Time;durP1;ratioP1;P1;durP2;ratioP2;P2;SDS_P1;SDS_P2;PMS_P1;PMS_P2;Temp;Humidity;BMP_temperature;BMP_pressure;BME280_temperature;BME280_humidity;BME280_pressure;Samples;Min_cycle;Max_cycle;Signal;HPM_P1;HPM_P2
2021/05/30 00:00:51;;;;;;;24.80;15.65;;;;;;;10.85;81.41;101296.00;5057642;28;20114;-72
2021/05/30 00:03:18;;;;;;;20.17;15.23;;;;;;;10.81;81.79;101299.75;5058102;28;20104;-72
2021/05/30 00:05:45;;;;;;;24.30;15.68;;;;;;;10.75;81.93;101299.13;5057867;28;20049;-69
2021/05/30 00:08:14;;;;;;;18.60;13.90;;;;;;;10.69;82.44;101301.13;5058111;28;20077;-72
2021/05/30 00:10:41;;;;;;;18.05;14.23;;;;;;;10.73;81.85;101296.53;5056830;28;20051;-70
2021/05/30 00:13:08;;;;;;;19.10;13.88;;;;;;;10.77;81.51;101305.28;5057708;28;20148;-70
2021/05/30 00:15:35;;;;;;;15.52;12.27;;;;;;;10.67;81.92;101311.00;5057830;28;20099;-72
2021/05/30 00:18:01;;;;;;;13.90;11.88;;;;;;;10.61;82.37;101308.59;5053736;28;20115;-71
2021/05/30 00:20:28;;;;;;;21.77;12.18;;;;;;;10.59;82.36;101316.66;5037864;28;20119;-72
2021/05/30 00:22:55;;;;;;;19.13;13.40;;;;;;;10.61;82.12;101302.41;5037857;28;20143;-70
2021/05/30 00:25:22;;;;;;;21.08;12.60;;;;;;;10.55;82.21;101306.19;5037571;28;20099;-72
2021/05/30 00:27:48;;;;;;;18.02;12.95;;;;;;;10.57;82.36;101302.53;5036728;28;20122;-71
2021/05/30 00:30:15;;;;;;;16.45;11.23;;;;;;;10.35;83.00;101294.53;5036223;28;20099;-72
2021/05/30 00:32:42;;;;;;;20.70;12.02;;;;;;;10.46;82.76;101302.13;5037567;28;20053;-72
2021/05/30 00:35:09;;;;;;;19.50;11.05;;;;;;;10.41;82.99;101296.09;5036280;28;20049;-71
2021/05/30 00:37:36;;;;;;;17.75;11.85;;;;;;;10.36;83.23;101306.09;5036232;28;20049;-72
2021/05/30 00:40:03;;;;;;;14.82;11.27;;;;;;;10.32;83.35;101303.56;5037289;28;20107;-70
2021/05/30 00:42:30;;;;;;;15.57;10.25;;;;;;;10.17;83.23;101283.72;5037167;28;20061;-72
2021/05/30 00:44:56;;;;;;;14.45;10.95;;;;;;;10.29;83.02;101294.78;5037041;28;20053;-71
2021/05/30 00:47:23;;;;;;;14.07;10.70;;;;;;;10.27;83.03;101294.88;5036148;28;20049;-72
2021/05/30 00:49:50;;;;;;;16.17;11.80;;;;;;;10.28;82.90;101298.38;5036974;28;20050;-71
2021/05/30 00:52:16;;;;;;;19.48;11.18;;;;;;;10.19;83.00;101281.84;5035850;28;20057;-70
2021/05/30 00:54:43;;;;;;;16.00;10.43;;;;;;;10.18;83.32;101295.22;5037197;28;20049;-71
2021/05/30 00:57:10;;;;;;;16.55;10.95;;;;;;;10.11;83.32;101283.97;5036947;28;20050;-71
2021/05/30 00:59:37;;;;;;;16.13;12.20;;;;;;;10.08;83.47;101289.41;5036178;28;20104;-71
2021/05/30 01:02:05;;;;;;;17.23;11.00;;;;;;;10.14;83.31;101299.81;5036935;28;20100;-70
2021/05/30 01:04:32;;;;;;;13.40;10.75;;;;;;;10.09;83.49;101296.50;5037178;28;20309;-72
2021/05/30 01:07:00;;;;;;;20.67;10.75;;;;;;;10.05;83.83;101300.22;5037005;28;20046;-73
2021/05/30 01:09:28;;;;;;;13.65;10.68;;;;;;;10.03;83.53;101291.41;5042534;28;20099;-73
2021/05/30 01:11:55;;;;;;;15.13;12.40;;;;;;;10.03;83.66;101296.75;5037934;28;20049;-70
2021/05/30 01:14:22;;;;;;;15.25;11.73;;;;;;;9.98;84.11;101298.72;5038297;28;20103;-72
2021/05/30 01:16:50;;;;;;;16.15;11.55;;;;;;;10.01;84.00;101298.59;5037619;28;20045;-70
2021/05/30 01:19:18;;;;;;;14.50;11.38;;;;;;;9.99;84.11;101297.78;5051742;28;20053;-70
2021/05/30 01:21:46;;;;;;;16.50;11.80;;;;;;;10.00;84.01;101297.72;5056191;28;20079;-70
2021/05/30 01:24:16;;;;;;;20.70;12.45;;;;;;;9.95;84.28;101289.03;5056534;28;20057;-71
2021/05/30 01:26:44;;;;;;;19.10;12.40;;;;;;;10.00;84.14;101302.19;5056364;28;20053;-70
2021/05/30 01:29:11;;;;;;;19.42;12.35;;;;;;;9.97;84.22;101297.84;5055393;28;20515;-70
2021/05/30 01:31:38;;;;;;;19.55;11.85;;;;;;;9.96;84.36;101297.94;5056120;28;20053;-71
2021/05/30 01:34:05;;;;;;;19.08;13.13;;;;;;;9.92;84.27;101289.19;5056037;28;20508;-72
2021/05/30 01:36:32;;;;;;;16.92;11.82;;;;;;;9.95;84.44;101298.81;5055185;28;20343;-70
2021/05/30 01:38:59;;;;;;;19.95;11.70;;;;;;;9.89;84.69;101295.50;5055982;28;20381;-72
2021/05/30 01:41:25;;;;;;;14.38;11.88;;;;;;;9.91;84.18;101298.09;5055829;28;20049;-70
2021/05/30 01:43:52;;;;;;;15.13;12.32;;;;;;;9.91;84.29;101298.09;5055948;28;20358;-72
2021/05/30 01:46:19;;;;;;;19.15;13.50;;;;;;;9.84;84.83;101294.81;5055905;28;20048;-72
2021/05/30 01:48:46;;;;;;;26.77;13.52;;;;;;;9.77;84.93;101296.84;5056192;28;20052;-70
2021/05/30 01:51:12;;;;;;;15.00;12.07;;;;;;;9.83;84.98;101305.53;5055880;28;20044;-70
2021/05/30 01:53:47;;;;;;;15.75;11.48;;;;;;;9.80;85.22;101300.31;5055837;28;20052;-70
2021/05/30 01:58:43;;;;;;;17.92;12.35;;;;;;;9.67;85.81;101299.91;5054815;28;20430;-70
2021/05/30 02:01:12;;;;;;;18.05;12.32;;;;;;;9.69;85.24;101298.94;5055730;28;20060;-70
2021/05/30 02:03:41;;;;;;;20.20;13.82;;;;;;;9.57;85.88;101296.75;5055697;28;20114;-70
2021/05/30 02:06:08;;;;;;;15.75;12.95;;;;;;;9.48;86.42;101293.50;5055503;28;20057;-70
2021/05/30 02:08:38;;;;;;;16.98;12.93;;;;;;;9.54;85.81;101303.09;5054657;28;20404;-70
2021/05/30 02:11:08;;;;;;;18.10;12.10;;;;;;;9.48;86.30;101306.84;5054810;28;20071;-70
2021/05/30 02:13:35;;;;;;;15.20;12.40;;;;;;;9.39;86.56;101301.88;5055641;28;20275;-70
2021/05/30 02:16:04;;;;;;;16.95;12.35;;;;;;;9.40;86.07;101298.28;5054774;28;20098;-70
2021/05/30 02:18:31;;;;;;;17.67;13.18;;;;;;;9.40;85.95;101294.72;5047408;28;20466;-70
2021/05/30 02:20:58;;;;;;;17.55;12.65;;;;;;;9.37;86.27;101293.03;5034687;28;20054;-70
2021/05/30 02:23:25;;;;;;;18.83;13.40;;;;;;;9.35;86.46;101301.13;5035614;28;20427;-70
2021/05/30 02:25:52;;;;;;;23.95;12.10;;;;;;;9.32;86.65;101300.38;5035382;28;20492;-71
2021/05/30 02:28:18;;;;;;;14.23;10.65;;;;;;;9.33;86.54;101296.75;5035398;28;20050;-71
2021/05/30 02:30:45;;;;;;;16.90;12.35;;;;;;;9.34;86.02;101287.84;5017877;28;20096;-70
2021/05/30 02:33:12;;;;;;;16.25;12.15;;;;;;;9.34;86.14;101287.84;5035640;28;20140;-70
2021/05/30 02:35:39;;;;;;;18.60;12.23;;;;;;;9.32;86.05;101284.38;5035790;28;20423;-69
2021/05/30 02:38:05;;;;;;;24.08;13.65;;;;;;;9.23;86.16;101282.91;5034065;28;20379;-70
2021/05/30 02:40:32;;;;;;;16.20;12.15;;;;;;;9.22;86.04;101289.19;5035356;28;20099;-70
2021/05/30 02:42:59;;;;;;;16.48;12.30;;;;;;;9.18;86.25;101276.88;5035064;28;20332;-70
2021/05/30 02:45:25;;;;;;;17.10;12.52;;;;;;;9.08;86.02;101271.03;5035453;28;20049;-70
2021/05/30 02:47:52;;;;;;;20.38;12.82;;;;;;;9.12;86.00;101278.00;5034628;28;20053;-69
2021/05/30 02:50:19;;;;;;;18.80;11.45;;;;;;;9.09;86.12;101275.44;5035333;28;20050;-69
2021/05/30 02:52:46;;;;;;;19.52;12.38;;;;;;;9.09;85.97;101278.09;5017846;28;20053;-70
2021/05/30 02:55:13;;;;;;;18.33;12.02;;;;;;;9.03;86.27;101287.19;5034043;28;20073;-70
2021/05/30 02:57:40;;;;;;;21.40;13.13;;;;;;;9.02;86.25;101280.13;5034737;28;20084;-70
2021/05/30 03:00:09;;;;;;;23.73;12.02;;;;;;;9.06;86.24;101278.22;5034828;28;20418;-70
2021/05/30 03:02:36;;;;;;;16.45;11.68;;;;;;;9.08;85.95;101274.56;5035143;28;20050;-69
2021/05/30 03:05:05;;;;;;;20.27;12.57;;;;;;;9.08;86.00;101274.56;5035046;28;20183;-70
2021/05/30 03:07:32;;;;;;;18.85;12.63;;;;;;;9.05;85.84;101265.84;5034745;28;20140;-70
2021/05/30 03:09:59;;;;;;;15.55;11.55;;;;;;;9.00;86.35;101279.31;5034941;28;20076;-69
2021/05/30 03:12:25;;;;;;;18.23;12.00;;;;;;;8.96;86.53;101278.56;5035061;28;20107;-69
2021/05/30 03:14:52;;;;;;;18.98;12.20;;;;;;;8.86;86.07;101263.84;5033773;28;20049;-70
2021/05/30 03:17:19;;;;;;;16.35;12.32;;;;;;;8.96;86.45;101275.91;5035019;28;20045;-70
2021/05/30 03:19:45;;;;;;;18.92;12.43;;;;;;;8.90;86.42;101273.47;5052763;28;20080;-70
2021/05/30 03:22:12;;;;;;;16.15;12.27;;;;;;;8.94;86.46;101275.06;5055008;28;20052;-70
2021/05/30 03:24:39;;;;;;;19.27;12.73;;;;;;;8.91;86.54;101282.28;5053853;28;20045;-70
2021/05/30 03:27:06;;;;;;;20.23;14.20;;;;;;;8.87;86.75;101278.88;5054617;28;20045;-70
2021/05/30 03:29:32;;;;;;;21.77;14.20;;;;;;;8.88;86.68;101277.94;5054538;28;20083;-70
2021/05/30 03:31:59;;;;;;;19.38;13.60;;;;;;;8.86;86.95;101284.25;5054621;28;20053;-69
2021/05/30 03:34:25;;;;;;;18.05;13.13;;;;;;;8.86;86.78;101281.59;5056687;28;20060;-70
2021/05/30 03:36:55;;;;;;;16.98;12.68;;;;;;;8.81;87.03;101293.28;5057331;28;20049;-70
2021/05/30 03:39:24;;;;;;;18.02;13.60;;;;;;;8.82;86.63;101292.34;5054174;28;20102;-70
2021/05/30 03:41:54;;;;;;;20.92;13.50;;;;;;;8.79;87.00;101292.47;5054647;28;20048;-70
2021/05/30 03:44:21;;;;;;;21.90;13.43;;;;;;;8.73;87.25;101287.38;5053440;28;20084;-70
2021/05/30 03:46:48;;;;;;;19.38;13.82;;;;;;;8.76;87.59;101297.91;5053371;28;20057;-70
2021/05/30 03:49:15;;;;;;;17.85;13.10;;;;;;;8.71;87.16;101283.88;5053205;28;20358;-70
2021/05/30 03:51:41;;;;;;;17.40;13.25;;;;;;;8.74;87.45;101299.75;5054441;28;20103;-70
2021/05/30 03:54:08;;;;;;;18.98;13.80;;;;;;;8.69;88.00;101291.06;5057947;28;20057;-70
2021/05/30 03:56:36;;;;;;;20.58;13.50;;;;;;;8.69;87.78;101294.59;5058225;28;20052;-70
2021/05/30 03:59:02;;;;;;;19.30;13.52;;;;;;;8.73;87.46;101297.13;5058182;28;20052;-70
2021/05/30 04:01:29;;;;;;;21.98;14.57;;;;;;;8.78;87.51;101298.69;5057767;28;20114;-70
2021/05/30 04:03:56;;;;;;;22.63;14.50;;;;;;;8.77;87.66;101293.47;5058003;28;20049;-70
2021/05/30 04:06:23;;;;;;;18.50;13.10;;;;;;;8.77;87.69;101302.28;5057731;28;20057;-71
2021/05/30 04:08:50;;;;;;;20.63;14.23;;;;;;;8.78;87.36;101297.84;5057975;28;20049;-71
2021/05/30 04:11:18;;;;;;;20.00;13.93;;;;;;;8.80;87.35;101296.88;5057744;28;20343;-70
2021/05/30 04:13:45;;;;;;;19.63;13.52;;;;;;;8.83;87.25;101296.75;5057787;28;20061;-71
2021/05/30 04:16:11;;;;;;;19.63;13.73;;;;;;;8.87;87.33;101294.00;5057897;28;20045;-71
2021/05/30 04:18:38;;;;;;;20.50;13.63;;;;;;;8.86;87.08;101303.75;5048622;28;20358;-70
2021/05/30 04:21:05;;;;;;;17.73;13.77;;;;;;;8.88;87.26;101306.38;5037564;28;20092;-70
2021/05/30 04:23:32;;;;;;;18.15;13.00;;;;;;;8.81;87.00;101295.06;5037480;28;20053;-71
2021/05/30 04:25:59;;;;;;;20.88;14.00;;;;;;;9.03;86.73;101296.94;5037749;28;20045;-70
2021/05/30 04:28:25;;;;;;;20.77;12.93;;;;;;;8.96;87.29;101304.31;5037412;28;20049;-70
2021/05/30 04:30:52;;;;;;;17.35;13.32;;;;;;;9.02;86.99;101304.09;5037427;28;20053;-71
2021/05/30 04:33:20;;;;;;;17.55;12.77;;;;;;;8.99;87.08;101306.84;5037647;28;20050;-71
2021/05/30 04:35:47;;;;;;;19.17;13.00;;;;;;;9.05;86.94;101300.44;5037511;28;20053;-71
2021/05/30 04:38:14;;;;;;;20.38;13.55;;;;;;;9.19;86.52;101299.94;5037131;28;20320;-70
2021/05/30 04:40:41;;;;;;;22.55;14.35;;;;;;;9.15;86.81;101299.16;5037187;28;20431;-70
2021/05/30 04:43:07;;;;;;;19.88;13.25;;;;;;;9.24;86.72;101303.28;5036153;28;20053;-70
2021/05/30 04:45:34;;;;;;;18.17;14.18;;;;;;;9.26;87.00;101300.59;5037321;28;20053;-70
2021/05/30 04:48:00;;;;;;;20.70;13.40;;;;;;;9.28;86.85;101294.28;5037173;28;20076;-70
2021/05/30 04:50:27;;;;;;;19.05;13.27;;;;;;;9.31;86.75;101302.13;5036865;28;20526;-70
2021/05/30 04:52:54;;;;;;;21.92;14.18;;;;;;;9.37;86.64;101307.25;5036853;28;20375;-70
2021/05/30 04:55:21;;;;;;;20.80;14.32;;;;;;;9.41;86.86;101299.16;5037051;28;20438;-71
2021/05/30 04:57:48;;;;;;;25.92;17.52;;;;;;;9.55;86.86;101306.59;5036787;28;20049;-70
2021/05/30 05:00:16;;;;;;;24.42;14.82;;;;;;;9.61;86.67;101307.25;5036565;28;20061;-70
2021/05/30 05:02:43;;;;;;;25.65;16.38;;;;;;;9.77;86.21;101306.66;5036038;28;20119;-70
2021/05/30 05:05:11;;;;;;;27.35;15.80;;;;;;;9.88;85.99;101306.22;5036533;28;20049;-70
2021/05/30 05:07:40;;;;;;;27.77;16.17;;;;;;;9.99;85.23;101305.78;5036949;28;20049;-71
2021/05/30 05:10:08;;;;;;;24.20;15.93;;;;;;;10.04;85.23;101295.81;5036792;28;20144;-70
2021/05/30 05:12:35;;;;;;;23.67;16.55;;;;;;;10.12;85.24;101303.47;5036867;28;20046;-70
2021/05/30 05:15:03;;;;;;;23.20;15.57;;;;;;;10.22;84.73;101309.31;5036501;28;20057;-70
2021/05/30 05:17:29;;;;;;;24.33;15.60;;;;;;;10.26;84.59;101302.94;5036670;28;20155;-71
2021/05/30 05:19:56;;;;;;;24.05;15.73;;;;;;;10.31;84.18;101307.13;5055505;28;20061;-70
2021/05/30 05:22:23;;;;;;;26.55;15.65;;;;;;;10.36;83.98;101301.63;5056619;28;20413;-71
2021/05/30 05:24:59;;;;;;;26.83;16.33;;;;;;;10.44;84.12;101307.53;5056237;28;20080;-71
2021/05/30 05:27:26;;;;;;;22.77;16.20;;;;;;;10.53;83.84;101306.28;5056425;28;20060;-70
2021/05/30 05:29:53;;;;;;;24.83;17.52;;;;;;;10.65;83.49;101309.34;5056086;28;20110;-71
2021/05/30 05:32:19;;;;;;;23.27;18.20;;;;;;;10.74;82.55;101306.28;5056111;28;20057;-70
2021/05/30 05:34:46;;;;;;;25.25;17.83;;;;;;;10.81;82.53;101320.25;5056247;28;20113;-70
2021/05/30 05:37:13;;;;;;;26.90;18.98;;;;;;;10.81;82.46;101299.75;5056273;28;20138;-71
2021/05/30 05:39:39;;;;;;;26.80;17.35;;;;;;;10.83;82.96;101303.22;5055263;28;20049;-70
2021/05/30 05:42:07;;;;;;;24.17;18.73;;;;;;;10.96;81.81;101306.19;5056188;28;20052;-70
2021/05/30 05:44:33;;;;;;;22.83;16.00;;;;;;;11.08;80.87;101309.28;5054860;28;20053;-71
2021/05/30 05:47:00;;;;;;;21.25;16.67;;;;;;;11.13;80.46;101307.28;5055760;28;20052;-70
2021/05/30 05:49:27;;;;;;;23.00;16.38;;;;;;;11.21;79.63;101304.22;5055850;28;20373;-70
2021/05/30 05:51:54;;;;;;;21.88;15.93;;;;;;;11.32;79.43;101314.47;5055725;28;20500;-70
2021/05/30 05:54:40;;;;;;;21.40;15.52;;;;;;;11.36;78.82;101311.56;5055728;28;20099;-70
2021/05/30 05:57:07;;;;;;;23.73;15.57;;;;;;;11.42;78.91;101313.09;5056460;28;20049;-70
2021/05/30 05:59:34;;;;;;;25.55;15.57;;;;;;;11.47;78.80;101315.53;5055874;28;20136;-70
2021/05/30 06:02:01;;;;;;;18.67;14.32;;;;;;;11.51;78.21;101322.50;5055067;28;20123;-70
2021/05/30 06:04:28;;;;;;;21.75;15.50;;;;;;;11.57;78.72;101324.88;5058439;28;20529;-71
2021/05/30 06:06:54;;;;;;;20.70;15.27;;;;;;;11.61;77.36;101317.59;5058539;28;20079;-70
2021/05/30 06:09:21;;;;;;;20.80;14.65;;;;;;;11.62;77.59;101312.16;5056333;28;20397;-70
2021/05/30 06:11:48;;;;;;;19.40;13.65;;;;;;;11.64;77.56;101325.44;5038010;28;20045;-70
2021/05/30 06:14:14;;;;;;;20.02;13.23;;;;;;;11.76;76.15;101318.69;5046571;28;20053;-72
2021/05/30 06:16:42;;;;;;;17.30;13.27;;;;;;;11.77;76.82;101313.22;5034619;28;20168;-72
2021/05/30 06:19:08;;;;;;;20.95;12.60;;;;;;;11.79;76.69;101314.03;5051083;28;20041;-69
2021/05/30 06:21:38;;;;;;;17.75;12.30;;;;;;;11.86;76.41;101311.94;5048923;28;20056;-73
2021/05/30 06:24:05;;;;;;;17.88;12.15;;;;;;;11.97;75.91;101319.44;5045956;28;20123;-76
2021/05/30 06:26:32;;;;;;;17.75;11.23;;;;;;;12.11;73.40;101318.81;5044882;28;20409;-74
2021/05/30 06:28:59;;;;;;;15.30;11.23;;;;;;;12.16;73.28;101316.75;5044084;28;20316;-73
2021/05/30 06:31:25;;;;;;;16.77;10.18;;;;;;;12.20;73.85;101313.00;5043297;28;20331;-72
2021/05/30 06:33:52;;;;;;;14.32;10.77;;;;;;;12.16;73.78;101295.34;5046103;28;20103;-71
2021/05/30 06:36:19;;;;;;;14.07;10.55;;;;;;;12.28;72.73;101309.06;5043640;28;20053;-75
2021/05/30 06:38:45;;;;;;;14.85;10.18;;;;;;;12.33;71.50;101315.91;5046462;28;20041;-74
2021/05/30 06:41:12;;;;;;;18.60;10.18;;;;;;;12.30;71.59;101302.69;5043817;28;20462;-73
2021/05/30 06:43:39;;;;;;;14.48;9.80;;;;;;;12.45;71.21;101316.25;5045197;28;20095;-72
2021/05/30 06:46:05;;;;;;;16.75;9.88;;;;;;;12.53;70.02;101318.56;5040590;28;20045;-73
2021/05/30 06:48:32;;;;;;;13.50;9.35;;;;;;;12.57;70.76;101309.41;5046309;28;20045;-72
2021/05/30 06:51:22;;;;;;;16.42;9.43;;;;;;;12.68;69.39;101307.03;5055097;28;20049;-70
2021/05/30 06:53:47;;;;;;;13.32;8.93;;;;;;;12.78;69.41;101307.44;5044212;28;20041;-70
2021/05/30 06:56:14;;;;;;;15.80;8.95;;;;;;;12.81;68.34;101309.94;5048210;28;20048;-75
2021/05/30 06:58:42;;;;;;;13.60;8.75;;;;;;;12.95;68.39;101305.69;5054853;28;20427;-74
2021/05/30 07:01:09;;;;;;;13.90;9.40;;;;;;;13.05;67.30;101309.63;5054817;28;20061;-75
2021/05/30 07:03:35;;;;;;;13.30;8.25;;;;;;;13.06;67.09;101305.13;5055187;28;20049;-78
2021/05/30 07:06:02;;;;;;;11.65;7.28;;;;;;;13.10;67.48;101307.56;5053679;28;20049;-72
2021/05/30 07:08:29;;;;;;;13.82;8.63;;;;;;;13.22;66.47;101307.84;5053426;28;20090;-75
2021/05/30 07:10:56;;;;;;;12.00;8.23;;;;;;;13.22;66.87;101300.66;5054773;28;20304;-73
2021/05/30 07:13:23;;;;;;;16.60;9.30;;;;;;;13.37;65.68;101304.34;5052041;28;20052;-77
2021/05/30 07:15:53;;;;;;;13.05;8.15;;;;;;;13.43;65.54;101308.50;5050044;28;20044;-75
2021/05/30 07:18:22;;;;;;;12.65;7.85;;;;;;;13.53;64.64;101304.41;5044375;28;20064;-75
2021/05/30 07:20:50;;;;;;;11.32;7.75;;;;;;;13.60;64.91;101299.56;5043608;28;20054;-75
2021/05/30 07:23:17;;;;;;;10.18;8.10;;;;;;;13.54;66.74;101299.88;5040202;28;20465;-75
2021/05/30 07:25:44;;;;;;;15.82;8.73;;;;;;;13.67;67.48;101306.31;5051315;28;20072;-76
2021/05/30 07:28:11;;;;;;;16.38;9.55;;;;;;;13.76;67.26;101304.94;5052836;28;20422;-75
2021/05/30 07:30:38;;;;;;;20.60;9.30;;;;;;;13.78;67.25;101300.31;5054315;28;20045;-79
2021/05/30 07:33:05;;;;;;;15.07;10.02;;;;;;;13.85;66.93;101303.56;5053531;28;20049;-75
2021/05/30 07:35:32;;;;;;;14.80;10.98;;;;;;;13.91;67.02;101311.25;5037594;28;20057;-75
2021/05/30 07:37:58;;;;;;;13.73;9.43;;;;;;;13.92;66.75;101309.41;5038602;28;20057;-75
2021/05/30 07:40:26;;;;;;;14.40;10.18;;;;;;;14.05;67.30;101318.50;5038635;28;20057;-70
2021/05/30 07:42:53;;;;;;;18.67;9.18;;;;;;;14.13;68.29;101315.38;5037092;28;20076;-77
2021/05/30 07:45:21;;;;;;;13.38;8.77;;;;;;;14.04;67.01;101308.72;5042434;28;20044;-77
2021/05/30 07:47:49;;;;;;;15.48;9.55;;;;;;;14.12;66.07;101316.34;5047642;28;20048;-73
2021/05/30 07:50:17;;;;;;;13.23;8.85;;;;;;;14.17;66.61;101322.28;5043803;28;20115;-70
2021/05/30 07:52:44;;;;;;;13.48;9.20;;;;;;;14.17;65.97;101318.75;5045005;28;20099;-75
2021/05/30 07:55:12;;;;;;;12.52;8.13;;;;;;;14.32;66.07;101325.06;5046234;28;20103;-73
2021/05/30 07:57:39;;;;;;;12.38;8.98;;;;;;;14.33;63.50;101324.97;5049102;28;20095;-70
2021/05/30 08:00:11;;;;;;;11.93;8.55;;;;;;;14.49;64.34;101327.63;5046301;28;20056;-70
2021/05/30 08:02:38;;;;;;;12.32;8.88;;;;;;;14.64;63.12;101325.84;5046817;28;20385;-70
2021/05/30 08:05:06;;;;;;;9.90;7.93;;;;;;;14.60;65.25;101326.97;5051782;28;20114;-72
2021/05/30 08:07:34;;;;;;;11.55;8.85;;;;;;;14.63;64.38;101325.94;5048588;28;20061;-71
2021/05/30 08:10:02;;;;;;;11.05;7.60;;;;;;;14.69;62.76;101317.50;5046513;28;20080;-71
2021/05/30 08:12:29;;;;;;;14.15;8.48;;;;;;;14.76;62.83;101318.06;5046907;28;20102;-73
2021/05/30 08:14:57;;;;;;;16.00;8.57;;;;;;;14.84;63.46;101322.94;5041721;28;20052;-70
2021/05/30 08:17:24;;;;;;;14.27;7.88;;;;;;;14.98;61.69;101319.44;5045406;28;20393;-70
2021/05/30 08:19:51;;;;;;;12.95;8.73;;;;;;;14.95;64.85;101315.09;5048392;28;20049;-69
2021/05/30 08:22:19;;;;;;;12.55;8.63;;;;;;;15.01;63.54;101319.22;5044425;28;20081;-71
2021/05/30 08:24:47;;;;;;;15.10;8.77;;;;;;;15.12;62.72;101327.50;5046305;28;20107;-73
2021/05/30 08:27:14;;;;;;;12.93;7.95;;;;;;;15.25;63.92;101319.53;5043961;28;20049;-75
2021/05/30 08:29:41;;;;;;;12.48;8.13;;;;;;;15.19;62.03;101314.53;5046013;28;20049;-72
2021/05/30 08:32:10;;;;;;;14.57;8.13;;;;;;;15.29;63.24;101310.31;5047772;28;20048;-72
2021/05/30 08:34:37;;;;;;;17.15;8.40;;;;;;;15.33;61.13;101314.56;5047804;28;20072;-75
2021/05/30 08:37:08;;;;;;;11.50;7.95;;;;;;;15.33;62.05;101313.69;5045501;28;20076;-72
2021/05/30 08:39:37;;;;;;;11.23;7.95;;;;;;;15.48;61.68;101307.31;5040650;28;20060;-70
2021/05/30 08:42:04;;;;;;;17.98;8.65;;;;;;;15.61;62.57;101317.31;5047814;28;20055;-71
2021/05/30 08:44:31;;;;;;;10.90;6.80;;;;;;;15.65;59.57;101313.47;5039471;28;20049;-73
2021/05/30 08:47:00;;;;;;;10.38;5.78;;;;;;;15.69;60.74;101319.53;5042854;28;20107;-71
2021/05/30 08:49:27;;;;;;;8.20;5.88;;;;;;;15.75;59.42;101303.81;5045976;28;20052;-70
2021/05/30 08:51:53;;;;;;;10.73;6.68;;;;;;;15.95;58.66;101308.94;5045590;28;20400;-75
2021/05/30 08:54:21;;;;;;;9.45;6.80;;;;;;;15.97;57.32;101307.84;5044445;28;20045;-74
2021/05/30 08:56:49;;;;;;;9.80;6.15;;;;;;;15.99;59.12;101303.25;5041054;28;20076;-73
2021/05/30 08:59:28;;;;;;;8.32;5.70;;;;;;;16.10;58.43;101304.34;5047080;28;20041;-71
2021/05/30 09:01:57;;;;;;;7.13;5.72;;;;;;;16.25;58.18;101313.25;5041973;28;20057;-69
2021/05/30 09:04:31;;;;;;;8.93;6.28;;;;;;;16.46;55.01;101313.63;5044699;28;20103;-69
2021/05/30 09:06:57;;;;;;;7.05;5.63;;;;;;;16.53;55.57;101303.28;5037595;28;20455;-73
2021/05/30 09:09:24;;;;;;;7.43;5.78;;;;;;;16.58;56.13;101311.94;5051756;28;20049;-72
2021/05/30 09:11:53;;;;;;;7.47;5.72;;;;;;;16.66;56.63;101306.00;5041122;28;20045;-73
2021/05/30 09:14:29;;;;;;;8.07;5.18;;;;;;;16.68;56.10;101296.84;5051297;28;20054;-74
2021/05/30 09:17:10;;;;;;;7.18;4.93;;;;;;;16.82;56.44;101292.31;5042539;28;20099;-71
2021/05/30 09:19:43;;;;;;;9.60;5.32;;;;;;;16.98;55.36;101292.13;5037129;28;20087;-74
2021/05/30 09:22:24;;;;;;;8.80;5.40;;;;;;;16.96;53.79;101300.31;5053805;28;20106;-75
2021/05/30 09:24:51;;;;;;;6.97;5.40;;;;;;;17.06;53.59;101300.56;5040808;28;20049;-72
2021/05/30 09:27:33;;;;;;;8.20;5.47;;;;;;;17.18;50.45;101296.16;5048986;28;20390;-71
2021/05/30 09:30:13;;;;;;;6.07;3.70;;;;;;;17.24;48.14;101295.72;5042264;28;20067;-73
2021/05/30 09:33:02;;;;;;;5.28;3.70;;;;;;;17.34;47.39;101289.66;5051368;28;20119;-75
2021/05/30 09:35:37;;;;;;;8.63;4.13;;;;;;;17.44;50.43;101295.25;5052508;28;20053;-77
2021/05/30 09:38:07;;;;;;;6.18;4.35;;;;;;;17.53;51.26;101291.88;5039964;28;20048;-77
2021/05/30 09:40:42;;;;;;;7.45;4.65;;;;;;;17.60;51.99;101286.91;5044064;28;20438;-72
2021/05/30 09:43:29;;;;;;;6.97;4.43;;;;;;;17.74;52.40;101284.06;5043857;28;20103;-72
2021/05/30 09:45:58;;;;;;;9.80;5.60;;;;;;;17.97;52.19;101292.28;5036016;28;20056;-71
2021/05/30 09:48:25;;;;;;;5.15;4.38;;;;;;;17.91;47.98;101284.63;5040542;28;20056;-72
2021/05/30 09:53:43;;;;;;;6.57;4.50;;;;;;;18.18;47.95;101288.97;5036005;28;20057;-72
2021/05/30 09:56:34;;;;;;;8.75;4.75;;;;;;;18.32;48.38;101283.38;5036032;28;20049;-72
2021/05/30 09:59:04;;;;;;;6.70;4.28;;;;;;;18.36;47.28;101283.16;5035832;28;20045;-76
2021/05/30 10:01:53;;;;;;;6.88;3.70;;;;;;;18.42;44.19;101278.13;5034653;28;20397;-73
2021/05/30 10:04:22;;;;;;;4.80;3.55;;;;;;;18.41;45.28;101275.56;5050923;28;20430;-73
2021/05/30 10:06:49;;;;;;;9.50;3.70;;;;;;;18.59;47.19;101279.53;5052849;28;20084;-74
2021/05/30 10:09:16;;;;;;;4.00;3.53;;;;;;;18.71;46.25;101277.75;5044005;28;20095;-75
2021/05/30 10:11:43;;;;;;;6.63;3.22;;;;;;;18.83;45.30;101283.16;5044712;28;20049;-75
2021/05/30 10:14:11;;;;;;;9.05;4.18;;;;;;;18.97;44.50;101292.91;5043540;28;20128;-72
2021/05/30 10:16:39;;;;;;;4.20;3.30;;;;;;;19.04;46.02;101294.16;5040495;28;20088;-70
2021/05/30 10:19:12;;;;;;;7.45;3.30;;;;;;;19.07;44.01;101282.25;5046467;28;20073;-74
2021/05/30 10:21:49;;;;;;;6.82;3.70;;;;;;;19.01;43.57;101294.38;5055352;28;20132;-71
2021/05/30 10:24:18;;;;;;;6.63;3.72;;;;;;;19.19;44.12;101280.41;5054975;28;20057;-71
2021/05/30 10:27:06;;;;;;;5.97;4.03;;;;;;;19.38;44.09;101280.66;5055196;28;20045;-72
2021/05/30 10:29:33;;;;;;;7.25;3.58;;;;;;;19.50;44.39;101273.38;5055073;28;20110;-72
2021/05/30 10:32:15;;;;;;;4.07;3.17;;;;;;;19.54;41.73;101279.41;5054030;28;20053;-70
2021/05/30 10:35:20;;;;;;;4.75;3.08;;;;;;;19.61;41.94;101275.19;5055456;28;20053;-70
2021/05/30 10:37:56;;;;;;;5.10;3.15;;;;;;;19.65;40.57;101276.69;5054975;28;20118;-70
2021/05/30 10:40:23;;;;;;;5.03;3.42;;;;;;;19.68;41.01;101265.56;5054773;28;20118;-70
2021/05/30 10:43:08;;;;;;;5.70;3.75;;;;;;;19.75;41.66;101259.66;5054226;28;20071;-70
2021/05/30 10:45:42;;;;;;;4.70;3.30;;;;;;;19.82;40.43;101263.56;5054594;28;20107;-70
2021/05/30 10:48:17;;;;;;;4.53;3.00;;;;;;;20.03;40.06;101263.69;5055111;28;20115;-70
2021/05/30 10:50:54;;;;;;;3.67;2.92;;;;;;;20.12;38.74;101259.34;5054812;28;20393;-70
2021/05/30 10:53:33;;;;;;;4.40;3.00;;;;;;;20.20;39.52;101262.25;5054885;28;20060;-70
2021/05/30 10:56:31;;;;;;;5.78;3.72;;;;;;;20.02;39.37;101255.66;5054868;28;20057;-70
2021/05/30 10:59:03;;;;;;;3.92;2.72;;;;;;;20.18;40.48;101247.97;5055287;28;20084;-70
2021/05/30 11:01:33;;;;;;;5.90;3.15;;;;;;;20.35;39.89;101246.53;5055586;28;20049;-69
2021/05/30 11:04:31;;;;;;;4.57;2.63;;;;;;;20.47;38.61;101232.91;5060906;28;20119;-70
2021/05/30 11:07:28;;;;;;;5.45;2.78;;;;;;;20.51;37.85;101228.06;5060306;28;20331;-70
2021/05/30 11:09:58;;;;;;;2.90;2.60;;;;;;;20.75;39.50;101231.38;5061673;28;20053;-70
2021/05/30 11:12:47;;;;;;;5.60;2.83;;;;;;;20.92;36.60;101226.34;5061721;28;20102;-70
2021/05/30 11:15:18;;;;;;;4.13;3.00;;;;;;;21.04;36.01;101229.84;5061054;28;20079;-70
2021/05/30 11:17:59;;;;;;;3.78;2.38;;;;;;;20.91;36.97;101230.03;5057692;28;20131;-70
2021/05/30 11:20:40;;;;;;;3.92;2.50;;;;;;;20.45;34.68;101222.22;5038661;28;20140;-70
2021/05/30 11:23:26;;;;;;;4.57;2.35;;;;;;;20.80;37.30;101222.81;5039390;28;20496;-70
2021/05/30 11:25:56;;;;;;;4.03;2.70;;;;;;;20.99;36.87;101219.41;5038808;28;20491;-70
2021/05/30 11:28:25;;;;;;;4.30;2.78;;;;;;;21.17;35.62;101219.59;5038952;28;20057;-70
2021/05/30 11:30:56;;;;;;;3.50;2.70;;;;;;;21.28;35.55;101215.91;5038423;28;20050;-71